Airport View

Enter AWOS ICAO identifier for current METAR.

ex. KFNL

KHLC 212253Z AUTO VRB04KT 10SM CLR 31/16 A2982 RMK AO2 SLP072 T03060161 TSNO

21 Sep 2019 23:57

Frequency: 118.425

Phone: 785-421-3471

Other Area AWOS: KRCP - KHYS - KOIN - KCBK

TAF AMD KHYS 212113Z 2121/2218 22013KT P6SM SCT040 TEMPO 2200/2204 VRB30G45KT 2SM -TSRA SCT040CB BKN200 FM220400 05010KT P6SM VCSH BKN040 OVC200 FM221000 36015G25KT P6SM OVC030